Time;durP1;ratioP1;P1;durP2;ratioP2;P2;SDS_P1;SDS_P2;PMS_P1;PMS_P2;Temp;Humidity;BMP_temperature;BMP_pressure;BME280_temperature;BME280_humidity;BME280_pressure;Samples;Min_cycle;Max_cycle;Signal;HPM_P1;HPM_P2
2023/10/15 00:01:05;;;;;;;9.30;1.70;;;;;;;;;;103931;1292;545465;-76
2023/10/15 00:04:36;;;;;;;7.70;1.60;;;;;;;;;;103849;1289;544726;-76
2023/10/15 00:08:16;;;;;;;7.40;1.70;;;;;;;;;;104040;1290;544742;-76
2023/10/15 00:12:00;;;;;;;6.30;1.40;;;;;;;;;;103622;1292;548603;-76
2023/10/15 00:15:31;;;;;;;11.80;2.00;;;;;;;;;;103822;1290;544828;-79
2023/10/15 00:19:12;;;;;;;7.40;1.30;;;;;;;;;;103730;1291;544768;-76
2023/10/15 00:22:52;;;;;;;7.60;1.40;;;;;;;;;;103590;1289;549810;-76
2023/10/15 00:26:26;;;;;;;6.90;1.30;;;;;;;;;;103982;1292;544978;-76
2023/10/15 00:30:02;;;;;;;7.00;1.40;;;;;;;;;;103785;1292;544889;-75
2023/10/15 00:33:44;;;;;;;7.20;1.50;;;;;;;;;;103837;1291;545443;-77
2023/10/15 00:37:16;;;;;;;6.60;1.40;;;;;;;;;;103785;1292;544981;-76
2023/10/15 00:41:09;;;;;;;7.60;1.50;;;;;;;;;;103743;1291;544915;-75
2023/10/15 00:44:51;;;;;;;7.60;1.40;;;;;;;;;;103613;1289;548502;-75
2023/10/15 00:48:33;;;;;;;7.00;1.30;;;;;;;;;;103606;1291;547995;-75
2023/10/15 00:51:46;;;;;;;7.50;1.40;;;;;;;;;;103785;1292;544787;-76
2023/10/15 00:55:23;;;;;;;7.40;1.30;;;;;;;;;;103737;1292;544828;-75
2023/10/15 01:02:44;;;;;;;7.30;1.40;;;;;;;;;;103902;1292;545465;-74
2023/10/15 01:06:21;;;;;;;8.40;1.50;;;;;;;;;;103698;1295;544929;-76
2023/10/15 01:09:53;;;;;;;6.20;1.30;;;;;;;;;;103762;1292;544977;-78
2023/10/15 01:13:31;;;;;;;7.90;1.50;;;;;;;;;;103793;1289;544801;-75
2023/10/15 01:17:14;;;;;;;6.60;1.30;;;;;;;;;;103583;1292;547965;-75
2023/10/15 01:20:51;;;;;;;8.00;1.30;;;;;;;;;;103585;1291;547928;-75
2023/10/15 01:24:33;;;;;;;7.70;1.40;;;;;;;;;;103784;1292;545570;-75
2023/10/15 01:28:01;;;;;;;7.20;1.20;;;;;;;;;;103819;1290;545888;-76
2023/10/15 01:31:50;;;;;;;9.70;1.50;;;;;;;;;;103825;1288;544908;-76
2023/10/15 01:35:19;;;;;;;9.00;1.60;;;;;;;;;;103782;1292;544871;-76
2023/10/15 01:38:58;;;;;;;6.20;1.40;;;;;;;;;;103697;1291;545771;-75
2023/10/15 01:42:40;;;;;;;6.90;1.20;;;;;;;;;;103566;1292;548153;-76
2023/10/15 01:46:10;;;;;;;7.30;1.50;;;;;;;;;;103663;1289;544975;-75
2023/10/15 01:49:46;;;;;;;7.50;1.70;;;;;;;;;;103787;1291;545142;-75
2023/10/15 01:53:23;;;;;;;9.00;1.50;;;;;;;;;;103810;1289;544892;-76
2023/10/15 01:57:06;;;;;;;9.80;1.90;;;;;;;;;;103826;1288;546176;-76
2023/10/15 02:00:43;;;;;;;7.00;1.30;;;;;;;;;;103701;1292;545178;-75
2023/10/15 02:07:53;;;;;;;6.40;1.40;;;;;;;;;;103687;1294;545473;-78
2023/10/15 02:11:34;;;;;;;7.80;1.40;;;;;;;;;;103890;1295;545507;-77
2023/10/15 02:15:22;;;;;;;6.80;1.50;;;;;;;;;;103672;1301;547936;-75
2023/10/15 02:18:45;;;;;;;6.80;1.50;;;;;;;;;;103456;1295;545164;-75
2023/10/15 02:22:22;;;;;;;5.10;1.10;;;;;;;;;;103803;1289;544771;-76
2023/10/15 02:25:59;;;;;;;7.70;1.60;;;;;;;;;;103776;1289;545422;-75
2023/10/15 02:29:49;;;;;;;10.00;1.40;;;;;;;;;;103463;1292;548026;-76
2023/10/15 02:33:22;;;;;;;8.60;1.50;;;;;;;;;;103992;1288;547992;-75
2023/10/15 02:36:52;;;;;;;8.50;1.40;;;;;;;;;;103812;1291;545557;-75
2023/10/15 02:40:36;;;;;;;8.10;1.60;;;;;;;;;;103737;1292;545005;-74
2023/10/15 02:44:13;;;;;;;7.10;1.40;;;;;;;;;;103611;1292;548257;-76
2023/10/15 02:47:55;;;;;;;6.80;1.20;;;;;;;;;;103784;1292;544963;-75
2023/10/15 02:51:26;;;;;;;8.20;1.80;;;;;;;;;;103639;1295;545545;-78
2023/10/15 02:55:10;;;;;;;8.40;1.40;;;;;;;;;;103536;1294;548309;-76
2023/10/15 02:58:44;;;;;;;7.70;1.30;;;;;;;;;;103532;1292;548086;-76
2023/10/15 03:02:20;;;;;;;8.60;1.40;;;;;;;;;;103623;1292;547841;-75
2023/10/15 03:05:57;;;;;;;7.90;1.50;;;;;;;;;;103989;1292;544787;-77
2023/10/15 03:09:31;;;;;;;7.20;1.40;;;;;;;;;;103710;1291;544901;-77
2023/10/15 03:13:18;;;;;;;6.90;1.50;;;;;;;;;;103629;1291;547910;-76
2023/10/15 03:16:44;;;;;;;9.60;1.40;;;;;;;;;;103697;1292;545442;-75
2023/10/15 03:20:26;;;;;;;7.90;1.40;;;;;;;;;;103664;1291;545580;-77
2023/10/15 03:24:04;;;;;;;7.30;1.30;;;;;;;;;;103569;1292;547943;-78
2023/10/15 03:27:46;;;;;;;9.40;1.60;;;;;;;;;;103517;1291;547995;-76
2023/10/15 03:31:14;;;;;;;10.20;1.90;;;;;;;;;;103690;1291;545023;-77
2023/10/15 03:35:04;;;;;;;7.90;1.40;;;;;;;;;;103712;1289;545622;-77
2023/10/15 03:38:35;;;;;;;7.60;1.70;;;;;;;;;;103668;1292;546650;-85
2023/10/15 03:56:08;;;;;;;11.30;1.80;;;;;;;;;;104612;1286;549659;-76
2023/10/15 03:59:04;;;;;;;7.90;1.60;;;;;;;;;;103818;1289;545008;-77
2023/10/15 04:02:46;;;;;;;7.40;1.40;;;;;;;;;;103683;1291;545056;-76
2023/10/15 04:06:21;;;;;;;7.00;1.20;;;;;;;;;;103534;1291;547981;-78
2023/10/15 04:09:59;;;;;;;11.20;2.10;;;;;;;;;;103534;1291;547981;-76
2023/10/15 04:13:30;;;;;;;11.00;1.80;;;;;;;;;;104097;1286;544956;-76
2023/10/15 04:17:08;;;;;;;8.60;1.30;;;;;;;;;;103776;1294;545824;-77
2023/10/15 04:20:45;;;;;;;9.00;1.50;;;;;;;;;;103787;1289;544846;-76
2023/10/15 04:24:36;;;;;;;7.90;1.80;;;;;;;;;;104401;1285;548140;-76
2023/10/15 04:28:13;;;;;;;7.40;1.50;;;;;;;;;;103642;1293;548201;-77
2023/10/15 04:31:39;;;;;;;6.70;1.50;;;;;;;;;;103732;1292;546056;-74
2023/10/15 04:35:18;;;;;;;7.00;1.40;;;;;;;;;;103680;1289;545498;-75
2023/10/15 04:39:08;;;;;;;10.40;1.60;;;;;;;;;;103737;1292;545581;-75
2023/10/15 04:42:36;;;;;;;10.90;1.90;;;;;;;;;;103725;1292;544850;-76
2023/10/15 04:46:20;;;;;;;7.80;1.70;;;;;;;;;;103447;1291;547964;-74
2023/10/15 04:49:47;;;;;;;10.70;1.80;;;;;;;;;;104545;1281;544798;-78
2023/10/15 04:53:30;;;;;;;9.80;1.60;;;;;;;;;;104365;1285;545226;-81
2023/10/15 04:57:01;;;;;;;8.40;1.70;;;;;;;;;;104568;1282;545168;-75
2023/10/15 05:00:41;;;;;;;8.80;1.90;;;;;;;;;;103738;1291;544720;-74
2023/10/15 05:04:16;;;;;;;10.40;1.70;;;;;;;;;;103728;1291;544920;-74
2023/10/15 05:08:00;;;;;;;9.20;1.60;;;;;;;;;;103621;1295;547940;-75
2023/10/15 05:11:31;;;;;;;8.10;1.40;;;;;;;;;;103689;1291;545167;-76
2023/10/15 05:15:13;;;;;;;9.50;2.10;;;;;;;;;;103471;1293;545254;-77
2023/10/15 05:18:50;;;;;;;9.40;2.90;;;;;;;;;;103543;1296;547761;-75
2023/10/15 05:22:29;;;;;;;9.00;1.60;;;;;;;;;;103678;1289;547799;-76
2023/10/15 05:26:05;;;;;;;8.80;1.60;;;;;;;;;;103458;1291;548128;-76
2023/10/15 05:29:43;;;;;;;7.60;1.50;;;;;;;;;;103583;1292;547766;-75
2023/10/15 05:33:11;;;;;;;8.10;1.30;;;;;;;;;;103840;1289;544746;-75
2023/10/15 05:36:53;;;;;;;8.00;1.40;;;;;;;;;;103795;1291;545111;-76
2023/10/15 05:40:29;;;;;;;8.80;1.60;;;;;;;;;;103682;1290;545659;-76
2023/10/15 05:44:12;;;;;;;10.50;1.80;;;;;;;;;;103461;1291;547982;-75
2023/10/15 05:47:50;;;;;;;9.20;1.80;;;;;;;;;;103414;1292;546212;-76
2023/10/15 05:51:22;;;;;;;7.10;1.60;;;;;;;;;;103735;1291;544937;-75
2023/10/15 05:55:00;;;;;;;7.90;1.50;;;;;;;;;;103693;1292;547521;-75
2023/10/15 05:58:37;;;;;;;11.70;2.00;;;;;;;;;;103998;1292;545625;-76
2023/10/15 06:02:14;;;;;;;9.00;1.70;;;;;;;;;;103707;1292;546244;-75
2023/10/15 06:05:55;;;;;;;9.50;1.90;;;;;;;;;;104199;1286;545293;-77
2023/10/15 06:09:29;;;;;;;9.30;1.90;;;;;;;;;;104000;1288;544859;-75
2023/10/15 06:13:02;;;;;;;9.30;1.60;;;;;;;;;;103780;1292;544671;-74
2023/10/15 06:16:47;;;;;;;9.20;2.00;;;;;;;;;;104528;1282;545770;-78
2023/10/15 06:20:24;;;;;;;9.70;2.00;;;;;;;;;;103725;1292;545002;-76
2023/10/15 06:24:06;;;;;;;11.30;2.20;;;;;;;;;;103202;1299;547955;-77
2023/10/15 06:27:39;;;;;;;10.10;1.70;;;;;;;;;;103997;1292;544760;-77
2023/10/15 06:31:16;;;;;;;10.10;1.70;;;;;;;;;;103701;1291;544914;-76
2023/10/15 06:34:59;;;;;;;8.60;1.90;;;;;;;;;;103572;1292;547792;-78
2023/10/15 06:38:30;;;;;;;11.90;2.00;;;;;;;;;;103681;1292;544757;-77
2023/10/15 06:42:08;;;;;;;12.10;2.20;;;;;;;;;;103707;1291;545100;-79
2023/10/15 06:45:41;;;;;;;10.30;2.00;;;;;;;;;;103857;1289;544940;-77
2023/10/15 06:49:28;;;;;;;10.50;2.00;;;;;;;;;;103617;1289;546538;-76
2023/10/15 06:53:06;;;;;;;8.50;1.60;;;;;;;;;;103959;1290;547922;-80
2023/10/15 06:56:38;;;;;;;11.60;1.70;;;;;;;;;;103775;1292;544983;-75
2023/10/15 07:00:21;;;;;;;8.10;1.70;;;;;;;;;;103627;1290;548134;-75
2023/10/15 07:03:53;;;;;;;8.70;1.80;;;;;;;;;;103763;1292;544962;-77
2023/10/15 07:07:34;;;;;;;10.90;2.10;;;;;;;;;;103775;1292;545028;-76
2023/10/15 07:11:08;;;;;;;9.40;2.40;;;;;;;;;;103749;1292;544971;-76
2023/10/15 07:14:50;;;;;;;9.80;1.90;;;;;;;;;;103443;1294;547832;-76
2023/10/15 07:18:22;;;;;;;10.90;1.70;;;;;;;;;;103850;1292;544933;-77
2023/10/15 07:22:00;;;;;;;10.20;1.40;;;;;;;;;;103826;1291;544715;-78
2023/10/15 07:25:37;;;;;;;10.30;2.10;;;;;;;;;;103744;1290;545202;-76
2023/10/15 07:29:16;;;;;;;10.50;2.00;;;;;;;;;;103781;1289;544993;-78
2023/10/15 07:32:58;;;;;;;8.20;1.80;;;;;;;;;;103616;1291;547907;-76
2023/10/15 07:36:35;;;;;;;10.30;1.80;;;;;;;;;;103414;1298;548084;-79
2023/10/15 07:40:17;;;;;;;9.70;1.80;;;;;;;;;;103514;1294;547780;-79
2023/10/15 07:43:47;;;;;;;10.50;1.80;;;;;;;;;;104009;1285;547923;-78
2023/10/15 07:47:29;;;;;;;10.40;1.60;;;;;;;;;;103608;1292;547910;-79
2023/10/15 07:51:05;;;;;;;13.00;2.30;;;;;;;;;;103798;1291;548147;-79
2023/10/15 07:54:43;;;;;;;10.00;2.00;;;;;;;;;;103679;1292;548457;-75
2023/10/15 08:08:38;;;;;;;12.30;1.80;;;;;;;;;;104579;1285;550040;-80
2023/10/15 08:11:37;;;;;;;8.60;1.70;;;;;;;;;;103684;1291;547949;-76
2023/10/15 08:15:15;;;;;;;10.70;1.70;;;;;;;;;;103552;1295;548041;-78
2023/10/15 08:18:53;;;;;;;9.30;1.90;;;;;;;;;;103860;1292;548701;-80
2023/10/15 08:32:48;;;;;;;10.60;1.90;;;;;;;;;;104867;1291;549529;-76
2023/10/15 08:35:49;;;;;;;9.90;1.80;;;;;;;;;;103682;1290;547842;-77
2023/10/15 08:39:19;;;;;;;11.60;2.00;;;;;;;;;;103775;1292;545708;-80
2023/10/15 08:43:11;;;;;;;10.40;1.90;;;;;;;;;;103882;1290;547836;-76
2023/10/15 08:46:35;;;;;;;11.70;2.40;;;;;;;;;;103657;1291;545065;-79
2023/10/15 08:50:20;;;;;;;8.40;1.80;;;;;;;;;;103735;1292;547811;-81
2023/10/15 08:53:57;;;;;;;11.40;2.10;;;;;;;;;;103769;1292;547828;-82
2023/10/15 08:57:32;;;;;;;11.70;1.90;;;;;;;;;;103665;1292;548105;-79
2023/10/15 09:01:06;;;;;;;10.40;2.20;;;;;;;;;;103683;1292;547962;-81
2023/10/15 09:04:46;;;;;;;11.90;2.30;;;;;;;;;;103572;1292;548456;-79
2023/10/15 09:08:24;;;;;;;9.80;2.10;;;;;;;;;;103843;1290;548033;-78
2023/10/15 09:12:01;;;;;;;9.60;2.00;;;;;;;;;;103613;1303;548117;-80
2023/10/15 09:15:45;;;;;;;10.10;2.20;;;;;;;;;;103567;1292;546601;-79
2023/10/15 09:19:12;;;;;;;9.80;1.90;;;;;;;;;;103766;1295;545207;-79
2023/10/15 09:22:55;;;;;;;11.50;1.70;;;;;;;;;;103553;1291;545235;-79
2023/10/15 09:26:29;;;;;;;11.00;1.80;;;;;;;;;;103751;1288;547872;-79
2023/10/15 09:30:18;;;;;;;8.30;1.80;;;;;;;;;;103654;1291;548639;-80
2023/10/15 09:33:41;;;;;;;9.40;1.90;;;;;;;;;;103694;1295;545446;-81
2023/10/15 09:37:24;;;;;;;8.10;1.70;;;;;;;;;;103600;1291;548003;-80
2023/10/15 09:41:01;;;;;;;9.20;1.70;;;;;;;;;;103802;1292;547997;-78
2023/10/15 09:44:38;;;;;;;10.90;2.10;;;;;;;;;;103514;1292;546624;-77
2023/10/15 09:48:16;;;;;;;8.90;1.60;;;;;;;;;;104466;1289;548070;-76
2023/10/15 09:51:54;;;;;;;9.00;1.40;;;;;;;;;;104457;1291;548039;-76
2023/10/15 10:06:09;;;;;;;11.60;4.90;;;;;;;;;;105690;1282;549783;-78
2023/10/15 10:09:16;;;;;;;14.50;4.90;;;;;;;;;;104211;1295;546182;-78
2023/10/15 10:12:32;;;;;;;15.20;6.60;;;;;;;;;;104497;1289;547774;-77
2023/10/15 10:16:24;;;;;;;10.40;2.90;;;;;;;;;;104469;1289;545511;-78
2023/10/15 10:19:54;;;;;;;7.60;2.30;;;;;;;;;;104020;1292;547966;-79
2023/10/15 10:23:25;;;;;;;7.60;1.40;;;;;;;;;;104295;1291;544961;-79
2023/10/15 10:27:07;;;;;;;10.10;3.30;;;;;;;;;;104294;1295;545039;-77
2023/10/15 10:30:39;;;;;;;9.10;1.80;;;;;;;;;;103624;1289;544780;-77
2023/10/15 10:34:29;;;;;;;9.10;1.70;;;;;;;;;;103766;1291;547975;-79
2023/10/15 10:38:10;;;;;;;9.30;1.90;;;;;;;;;;103733;1291;545408;-78
2023/10/15 10:41:46;;;;;;;7.60;1.70;;;;;;;;;;103532;1292;547982;-79
2023/10/15 10:45:32;;;;;;;9.10;1.80;;;;;;;;;;103608;1292;547900;-78
2023/10/15 10:49:08;;;;;;;8.80;2.00;;;;;;;;;;103535;1295;548431;-79
2023/10/15 10:52:34;;;;;;;7.80;1.70;;;;;;;;;;104562;1285;546572;-78
2023/10/15 10:56:05;;;;;;;8.90;1.80;;;;;;;;;;103641;1292;545488;-78
2023/10/15 10:59:41;;;;;;;8.50;1.60;;;;;;;;;;103752;1294;547967;-78
2023/10/15 11:03:17;;;;;;;9.90;1.60;;;;;;;;;;103875;1290;544931;-78
2023/10/15 11:06:58;;;;;;;7.70;1.40;;;;;;;;;;103242;1294;548152;-77
2023/10/15 11:10:35;;;;;;;7.40;1.50;;;;;;;;;;103629;1292;547829;-79
2023/10/15 11:14:13;;;;;;;8.50;2.00;;;;;;;;;;103560;1295;548567;-78
2023/10/15 11:17:57;;;;;;;8.90;2.20;;;;;;;;;;103743;1292;545915;-78
2023/10/15 11:21:27;;;;;;;7.10;1.90;;;;;;;;;;103619;1295;547976;-77
2023/10/15 11:25:11;;;;;;;7.80;1.70;;;;;;;;;;103584;1292;547788;-76
2023/10/15 11:28:42;;;;;;;8.10;1.70;;;;;;;;;;103569;1291;547994;-78
2023/10/15 11:32:15;;;;;;;7.80;1.80;;;;;;;;;;103941;1289;545661;-78
2023/10/15 11:35:53;;;;;;;11.60;1.90;;;;;;;;;;103770;1289;544942;-78
2023/10/15 11:39:37;;;;;;;9.80;2.70;;;;;;;;;;103660;1292;548003;-79
2023/10/15 11:43:18;;;;;;;11.30;2.30;;;;;;;;;;103602;1289;548150;-78
2023/10/15 11:46:46;;;;;;;9.90;2.30;;;;;;;;;;103790;1288;545954;-78
2023/10/15 11:50:29;;;;;;;12.00;2.60;;;;;;;;;;103631;1292;548120;-80
2023/10/15 11:54:09;;;;;;;12.50;3.30;;;;;;;;;;103523;1291;547834;-76
2023/10/15 11:57:49;;;;;;;18.50;5.40;;;;;;;;;;103656;1292;548072;-79
2023/10/15 12:01:30;;;;;;;20.20;5.20;;;;;;;;;;103855;1291;547877;-78
2023/10/15 12:05:00;;;;;;;16.30;5.10;;;;;;;;;;103579;1291;548249;-79
2023/10/15 12:08:31;;;;;;;16.20;4.30;;;;;;;;;;103895;1295;548769;-80
2023/10/15 12:12:12;;;;;;;15.10;4.20;;;;;;;;;;103359;1297;548069;-81
2023/10/15 12:15:49;;;;;;;20.00;8.20;;;;;;;;;;103506;1291;547936;-78
2023/10/15 12:19:33;;;;;;;17.40;5.70;;;;;;;;;;103952;1292;546178;-79
2023/10/15 12:22:59;;;;;;;9.90;2.80;;;;;;;;;;103715;1294;545539;-77
2023/10/15 12:37:23;;;;;;;10.80;2.50;;;;;;;;;;104523;1288;550701;-79
2023/10/15 12:50:59;;;;;;;5.00;1.40;;;;;;;;;;104368;1288;550605;-82
2023/10/15 12:53:56;;;;;;;9.30;2.80;;;;;;;;;;103944;1289;546321;-78
2023/10/15 12:57:29;;;;;;;8.60;2.60;;;;;;;;;;103787;1288;547772;-78
2023/10/15 13:01:19;;;;;;;8.20;2.40;;;;;;;;;;103809;1292;547894;-77
2023/10/15 13:04:43;;;;;;;7.20;2.20;;;;;;;;;;103718;1295;545011;-78
2023/10/15 13:08:19;;;;;;;8.40;2.30;;;;;;;;;;104038;1290;544926;-76
2023/10/15 13:22:28;;;;;;;7.90;2.30;;;;;;;;;;104527;1285;553687;-81
2023/10/15 13:25:30;;;;;;;6.30;2.00;;;;;;;;;;103871;1289;545197;-81
2023/10/15 13:29:05;;;;;;;6.50;1.50;;;;;;;;;;103895;1293;548156;-79
2023/10/15 13:43:41;;;;;;;6.50;1.70;;;;;;;;;;104616;1285;552832;-78
2023/10/15 13:46:35;;;;;;;5.70;1.60;;;;;;;;;;103742;1290;546026;-78
2023/10/15 13:50:17;;;;;;;5.90;1.90;;;;;;;;;;103592;1291;547969;-80
2023/10/15 13:53:56;;;;;;;6.50;2.00;;;;;;;;;;103656;1292;547795;-79
2023/10/15 13:57:38;;;;;;;4.50;1.30;;;;;;;;;;103497;1291;547980;-79
2023/10/15 14:11:33;;;;;;;4.40;1.50;;;;;;;;;;104049;1288;553215;-79
2023/10/15 14:14:31;;;;;;;5.60;2.10;;;;;;;;;;103584;1295;547868;-80
2023/10/15 14:18:08;;;;;;;6.70;2.30;;;;;;;;;;103464;1292;548064;-81
2023/10/15 14:21:46;;;;;;;9.40;3.10;;;;;;;;;;103559;1297;547830;-80
2023/10/15 14:25:23;;;;;;;7.10;2.10;;;;;;;;;;103815;1289;547915;-79
2023/10/15 14:29:00;;;;;;;8.00;2.20;;;;;;;;;;103593;1291;548112;-80
2023/10/15 14:43:21;;;;;;;6.80;2.00;;;;;;;;;;104173;1283;553483;-78
2023/10/15 14:46:20;;;;;;;7.50;2.10;;;;;;;;;;104200;1285;548305;-79
2023/10/15 15:00:22;;;;;;;8.10;3.00;;;;;;;;;;104437;1285;554160;-78
2023/10/15 15:14:03;;;;;;;8.90;2.40;;;;;;;;;;104870;1286;550469;-80
2023/10/15 15:27:41;;;;;;;7.40;2.10;;;;;;;;;;106642;1270;549800;-81
2023/10/15 15:30:40;;;;;;;9.30;3.20;;;;;;;;;;103890;1288;545687;-80
2023/10/15 15:34:16;;;;;;;11.90;5.10;;;;;;;;;;103888;1292;548090;-80
2023/10/15 15:48:39;;;;;;;9.60;4.10;;;;;;;;;;107104;1260;550497;-80
2023/10/15 15:51:43;;;;;;;10.70;3.40;;;;;;;;;;104233;1285;545415;-78
2023/10/15 15:55:32;;;;;;;10.50;4.30;;;;;;;;;;103577;1292;547890;-80
2023/10/15 15:59:06;;;;;;;10.00;4.10;;;;;;;;;;103926;1288;545698;-81
2023/10/15 16:12:49;;;;;;;11.70;7.00;;;;;;;;;;104590;1288;551834;-79
2023/10/15 16:15:45;;;;;;;15.50;10.60;;;;;;;;;;103997;1292;548286;-80
2023/10/15 16:19:26;;;;;;;11.20;5.20;;;;;;;;;;103801;1289;547929;-79
2023/10/15 16:23:03;;;;;;;9.10;3.60;;;;;;;;;;103957;1289;546539;-79
2023/10/15 16:26:40;;;;;;;8.80;3.70;;;;;;;;;;103930;1291;546010;-78
2023/10/15 16:30:43;;;;;;;8.90;2.90;;;;;;;;;;103767;1289;548188;-81
2023/10/15 16:33:50;;;;;;;9.50;2.90;;;;;;;;;;103751;1291;546391;-81
2023/10/15 16:37:33;;;;;;;10.70;4.00;;;;;;;;;;103664;1292;548205;-78
2023/10/15 16:41:11;;;;;;;8.80;2.60;;;;;;;;;;103638;1294;548477;-78
2023/10/15 16:44:44;;;;;;;7.30;2.50;;;;;;;;;;103672;1292;548067;-77
2023/10/15 16:58:56;;;;;;;8.60;2.50;;;;;;;;;;104738;1280;550969;-80
2023/10/15 17:01:55;;;;;;;9.40;3.80;;;;;;;;;;103654;1292;547965;-80
2023/10/15 17:05:32;;;;;;;8.20;3.60;;;;;;;;;;103637;1296;549076;-78
2023/10/15 17:09:20;;;;;;;;;;;;;;;;;;;;;
2023/10/15 17:23:46;;;;;;;8.10;2.80;;;;;;;;;;106620;1265;550966;-81
2023/10/15 17:26:36;;;;;;;7.80;2.40;;;;;;;;;;104383;1286;548007;-81
2023/10/15 17:30:08;;;;;;;5.60;1.80;;;;;;;;;;103756;1291;544839;-79
2023/10/15 17:33:49;;;;;;;6.30;2.20;;;;;;;;;;103426;1292;547976;-78
2023/10/15 17:37:27;;;;;;;5.40;1.80;;;;;;;;;;103554;1291;547919;-78
2023/10/15 17:41:04;;;;;;;6.10;2.00;;;;;;;;;;104139;1288;547806;-79
2023/10/15 17:44:42;;;;;;;7.40;3.10;;;;;;;;;;103549;1292;547983;-78
2023/10/15 17:58:58;;;;;;;4.70;1.30;;;;;;;;;;106545;1266;549932;-80
2023/10/15 18:01:56;;;;;;;4.60;1.40;;;;;;;;;;103392;1295;548025;-80
2023/10/15 18:05:37;;;;;;;5.80;1.80;;;;;;;;;;103461;1294;548112;-78
2023/10/15 18:09:09;;;;;;;6.10;1.80;;;;;;;;;;103548;1297;545899;-79
2023/10/15 18:12:49;;;;;;;5.80;2.10;;;;;;;;;;103667;1296;547843;-78
2023/10/15 18:16:26;;;;;;;8.00;3.40;;;;;;;;;;103608;1291;547836;-80
2023/10/15 18:19:58;;;;;;;14.60;5.90;;;;;;;;;;103270;1308;545913;-79
2023/10/15 18:23:51;;;;;;;12.70;6.00;;;;;;;;;;103554;1291;548136;-80
2023/10/15 18:37:42;;;;;;;12.70;6.50;;;;;;;;;;104887;1286;553244;-80
2023/10/15 18:40:40;;;;;;;11.20;5.70;;;;;;;;;;103550;1292;547940;-78
2023/10/15 18:44:19;;;;;;;10.80;4.20;;;;;;;;;;103282;1297;547806;-79
2023/10/15 18:47:51;;;;;;;10.60;5.40;;;;;;;;;;103642;1295;545253;-79
2023/10/15 19:01:56;;;;;;;7.90;2.40;;;;;;;;;;104604;1283;553732;-81
2023/10/15 19:04:55;;;;;;;7.40;2.30;;;;;;;;;;103830;1292;548200;-79
2023/10/15 19:18:55;;;;;;;5.10;1.40;;;;;;;;;;104767;1282;554191;-77
2023/10/15 19:21:54;;;;;;;6.30;1.60;;;;;;;;;;104073;1289;547938;-78
2023/10/15 19:35:55;;;;;;;5.60;1.60;;;;;;;;;;104879;1285;553812;-80
2023/10/15 19:38:54;;;;;;;4.70;1.40;;;;;;;;;;103667;1290;548199;-79
2023/10/15 19:43:03;;;;;;;7.60;2.50;;;;;;;;;;104336;1286;548403;-79
2023/10/15 19:46:17;;;;;;;5.40;1.80;;;;;;;;;;103589;1297;545759;-78
2023/10/15 19:49:56;;;;;;;4.90;1.50;;;;;;;;;;103725;1292;547920;-79
2023/10/15 19:53:26;;;;;;;4.80;1.70;;;;;;;;;;103559;1292;547931;-78
2023/10/15 19:57:01;;;;;;;4.60;1.40;;;;;;;;;;103467;1291;547936;-78
2023/10/15 20:00:43;;;;;;;6.90;1.80;;;;;;;;;;103594;1303;547773;-78
2023/10/15 20:04:15;;;;;;;4.90;1.40;;;;;;;;;;103583;1295;548073;-83
2023/10/15 20:07:53;;;;;;;6.40;1.50;;;;;;;;;;103634;1289;548632;-78
2023/10/15 20:11:30;;;;;;;4.80;1.30;;;;;;;;;;103412;1298;548008;-77
2023/10/15 20:15:11;;;;;;;6.30;1.60;;;;;;;;;;103667;1292;547157;-79
2023/10/15 20:18:37;;;;;;;5.30;1.60;;;;;;;;;;103936;1289;545014;-78
2023/10/15 20:22:23;;;;;;;5.90;1.60;;;;;;;;;;103568;1291;548057;-79
2023/10/15 20:36:24;;;;;;;4.00;1.10;;;;;;;;;;104405;1285;553293;-79
2023/10/15 20:39:24;;;;;;;4.20;1.50;;;;;;;;;;103543;1290;548004;-81
2023/10/15 20:43:00;;;;;;;4.40;1.10;;;;;;;;;;103490;1294;547819;-80
2023/10/15 20:46:37;;;;;;;5.60;1.40;;;;;;;;;;103749;1291;548423;-80
2023/10/15 20:50:17;;;;;;;4.70;1.60;;;;;;;;;;104162;1284;547802;-79
2023/10/15 20:53:52;;;;;;;4.10;1.10;;;;;;;;;;103377;1293;547993;-79
2023/10/15 20:57:30;;;;;;;5.20;1.30;;;;;;;;;;103590;1291;547823;-79
2023/10/15 21:01:07;;;;;;;5.30;1.70;;;;;;;;;;103610;1292;548059;-78
2023/10/15 21:04:44;;;;;;;5.70;1.40;;;;;;;;;;103545;1292;547892;-78
2023/10/15 21:08:21;;;;;;;5.30;1.30;;;;;;;;;;104647;1283;546158;-77
2023/10/15 21:22:23;;;;;;;5.20;1.20;;;;;;;;;;104468;1285;553579;-80
2023/10/15 21:25:16;;;;;;;4.70;1.10;;;;;;;;;;103702;1291;544605;-76
2023/10/15 21:28:53;;;;;;;5.10;1.30;;;;;;;;;;104442;1284;545509;-81
2023/10/15 21:32:36;;;;;;;6.00;1.30;;;;;;;;;;103635;1289;546117;-78
2023/10/15 21:36:13;;;;;;;4.80;1.20;;;;;;;;;;103622;1292;547936;-78
2023/10/15 21:39:51;;;;;;;4.90;1.10;;;;;;;;;;103532;1291;548013;-80
2023/10/15 21:43:28;;;;;;;6.60;1.20;;;;;;;;;;103540;1291;547815;-80
2023/10/15 21:47:06;;;;;;;5.00;1.10;;;;;;;;;;104337;1286;548145;-78
2023/10/15 21:50:43;;;;;;;6.40;1.30;;;;;;;;;;103528;1303;547868;-77
2023/10/15 21:54:21;;;;;;;3.80;1.00;;;;;;;;;;103635;1291;547824;-78
2023/10/15 21:57:53;;;;;;;4.70;1.00;;;;;;;;;;103672;1295;545221;-79
2023/10/15 22:01:36;;;;;;;4.20;1.10;;;;;;;;;;103962;1286;545599;-78
2023/10/15 22:05:11;;;;;;;4.10;1.10;;;;;;;;;;103561;1291;545397;-79
2023/10/15 22:08:50;;;;;;;5.50;1.10;;;;;;;;;;103639;1295;547992;-76
2023/10/15 22:12:28;;;;;;;6.20;1.20;;;;;;;;;;103655;1295;548183;-78
2023/10/15 22:16:06;;;;;;;4.90;1.10;;;;;;;;;;103580;1292;547889;-78
2023/10/15 22:19:44;;;;;;;5.50;1.00;;;;;;;;;;103464;1297;547812;-78
2023/10/15 22:23:22;;;;;;;4.60;1.10;;;;;;;;;;103730;1291;544973;-77
2023/10/15 22:26:58;;;;;;;5.70;1.20;;;;;;;;;;103467;1292;547787;-78
2023/10/15 22:30:37;;;;;;;4.30;0.90;;;;;;;;;;103702;1292;544881;-78
2023/10/15 22:34:08;;;;;;;4.90;1.10;;;;;;;;;;103924;1288;546152;-77
2023/10/15 22:37:52;;;;;;;5.00;1.00;;;;;;;;;;103546;1291;548045;-79
2023/10/15 22:41:28;;;;;;;5.50;1.20;;;;;;;;;;103645;1291;547896;-78
2023/10/15 22:45:08;;;;;;;3.70;0.90;;;;;;;;;;103597;1292;548111;-78
2023/10/15 22:48:43;;;;;;;5.40;1.00;;;;;;;;;;103500;1295;548027;-78
2023/10/15 22:52:20;;;;;;;5.30;1.10;;;;;;;;;;103593;1291;547963;-79
2023/10/15 22:55:58;;;;;;;5.60;1.10;;;;;;;;;;103754;1290;547805;-78
2023/10/15 22:59:30;;;;;;;5.00;1.20;;;;;;;;;;103742;1292;546064;-78
2023/10/15 23:03:13;;;;;;;8.10;1.30;;;;;;;;;;103524;1291;548480;-81
2023/10/15 23:06:50;;;;;;;5.80;1.00;;;;;;;;;;103789;1292;547905;-78
2023/10/15 23:10:28;;;;;;;5.80;1.00;;;;;;;;;;103498;1292;546282;-78
2023/10/15 23:14:05;;;;;;;5.20;1.30;;;;;;;;;;103734;1292;548357;-78
2023/10/15 23:17:43;;;;;;;6.20;1.30;;;;;;;;;;103541;1292;548239;-78
2023/10/15 23:21:35;;;;;;;5.10;1.00;;;;;;;;;;103610;1289;547771;-78
2023/10/15 23:24:57;;;;;;;5.90;1.00;;;;;;;;;;103636;1291;547776;-78
2023/10/15 23:28:32;;;;;;;6.60;1.30;;;;;;;;;;103816;1290;547764;-81
2023/10/15 23:42:37;;;;;;;7.00;1.40;;;;;;;;;;104686;1282;553668;-78
2023/10/15 23:45:36;;;;;;;5.60;1.40;;;;;;;;;;103994;1285;547948;-79
2023/10/15 23:49:18;;;;;;;6.30;1.20;;;;;;;;;;103492;1294;548010;-78
2023/10/15 23:52:45;;;;;;;5.20;1.00;;;;;;;;;;103745;1290;545191;-76
2023/10/15 23:56:31;;;;;;;5.60;1.30;;;;;;;;;;103687;1290;548037;-77
